SPHI/CIX METAR and TAF weather

Enter ICAO airport designator
Station Type Date Time Source
SPHI METAR 2020/09/19 19:00 UTC NOAA

SPHI 191900Z 20014KT CAVOK 22/14 Q1013 RMK BIRD HAZARD RWY 19/01 PP000


Station Type Date Time Source
SPHI Decoded METAR 2020/09/19 19:00 UTC NOAA

Chiclayo, Peru (SPHI) 06-47S 079-50W 34M
Sep 19, 2020 - 03:00 PM EDT / 2020.09.19 1900 UTC
Wind: from the SSW (200 degrees) at 16 MPH (14 KT):0
Visibility: greater than 7 mile(s):0
Temperature: 71 F (22 C)
Dew Point: 57 F (14 C)
Relative Humidity: 60%
Pressure (altimeter): 29.91 in. Hg (1013 hPa)
ob: SPHI 191900Z 20014KT CAVOK 22/14 Q1013 RMK BIRD HAZARD RWY 19/01 PP000
cycle: 19

Station Type Date Time Source
SPHI TAF 2020/09/19 18:33 UTC NOAA

TAF SPHI 191700Z 1918/2018 19014KT CAVOK TX23/1919Z TN15/2011Z
BECMG 2003/2005 18008KT CAVOK
BECMG 2010/2013 6000 OVC010
BECMG 2014/2016 VRB04KT CAVOK

Example: see airport list